Time;durP1;ratioP1;P1;durP2;ratioP2;P2;SDS_P1;SDS_P2;PMS_P1;PMS_P2;Temp;Humidity;BMP_temperature;BMP_pressure;BME280_temperature;BME280_humidity;BME280_pressure;Samples;Min_cycle;Max_cycle;Signal;HPM_P1;HPM_P2
2022/03/23 00:01:24;;;;;;;14.70;3.78;;;;;;;8.54;100.00;101147.53;7392789;19;20425;-55
2022/03/23 00:03:50;;;;;;;14.02;3.78;;;;;;;8.46;100.00;101150.91;7389340;19;20022;-55
2022/03/23 00:06:17;;;;;;;14.38;5.55;;;;;;;8.33;100.00;101153.56;7393232;19;20018;-55
2022/03/23 00:08:46;;;;;;;15.48;3.28;;;;;;;8.28;100.00;101145.72;7392686;19;20058;-56
2022/03/23 00:11:12;;;;;;;5.47;3.88;;;;;;;8.29;100.00;101152.84;7395827;19;20003;-55
2022/03/23 00:13:38;;;;;;;22.27;5.68;;;;;;;8.30;100.00;101154.41;7392292;19;20347;-55
2022/03/23 00:16:05;;;;;;;7.45;3.08;;;;;;;8.22;100.00;101147.41;7393482;19;20011;-55
2022/03/23 00:18:31;;;;;;;6.40;3.28;;;;;;;8.18;100.00;101144.72;7393817;19;20462;-55
2022/03/23 00:20:57;;;;;;;18.05;8.68;;;;;;;8.23;100.00;101148.97;7395204;19;20042;-55
2022/03/23 00:23:22;;;;;;;15.13;6.57;;;;;;;8.16;100.00;101154.69;7393012;19;20073;-55
2022/03/23 00:25:48;;;;;;;7.72;4.07;;;;;;;8.05;100.00;101148.56;7394021;19;20463;-55
2022/03/23 00:28:13;;;;;;;24.73;5.03;;;;;;;7.97;100.00;101150.66;7393567;19;20581;-55
2022/03/23 00:30:39;;;;;;;8.30;3.65;;;;;;;7.90;100.00;101152.81;7392956;19;20463;-55
2022/03/23 00:33:05;;;;;;;7.65;4.68;;;;;;;7.82;100.00;101154.94;7392630;19;20010;-56
2022/03/23 00:35:31;;;;;;;6.20;2.85;;;;;;;7.76;100.00;101150.28;7393721;19;20034;-56
2022/03/23 00:37:58;;;;;;;14.73;6.28;;;;;;;7.65;100.00;101165.16;7393683;19;20022;-54
2022/03/23 00:40:30;;;;;;;4.68;2.55;;;;;;;7.59;100.00;101166.06;7393381;19;20006;-54
2022/03/23 00:42:58;;;;;;;6.53;3.35;;;;;;;7.56;100.00;101166.91;7393971;19;20031;-55
2022/03/23 00:45:24;;;;;;;14.57;4.63;;;;;;;7.53;100.00;101163.00;7395935;19;21366;-54
2022/03/23 00:47:50;;;;;;;13.10;4.35;;;;;;;7.50;100.00;101163.84;7397188;19;20042;-54
2022/03/23 00:50:17;;;;;;;17.35;4.72;;;;;;;7.46;100.00;101167.88;7397032;19;20011;-55
2022/03/23 00:52:46;;;;;;;14.88;4.05;;;;;;;7.46;100.00;101165.09;7396596;19;20017;-54
2022/03/23 00:55:11;;;;;;;7.20;3.95;;;;;;;7.46;100.00;101168.66;7393056;19;20060;-54
2022/03/23 00:57:38;;;;;;;17.20;4.72;;;;;;;7.42;100.00;101167.16;7389536;19;20052;-54
2022/03/23 01:00:12;;;;;;;14.32;4.43;;;;;;;7.36;100.00;101175.16;7387069;19;20014;-56
2022/03/23 01:02:42;;;;;;;6.15;3.47;;;;;;;7.28;100.00;101173.72;7390624;19;20018;-54
2022/03/23 01:05:09;;;;;;;14.77;5.22;;;;;;;7.25;100.00;101174.56;7393815;19;20028;-55
2022/03/23 01:07:36;;;;;;;4.88;2.15;;;;;;;7.16;100.00;101177.09;7393303;19;20391;-56
2022/03/23 01:10:04;;;;;;;14.85;3.22;;;;;;;7.12;100.00;101170.81;7390951;19;20018;-55
2022/03/23 01:12:30;;;;;;;16.80;5.70;;;;;;;7.11;100.00;101169.25;7395706;19;20070;-54
2022/03/23 01:14:55;;;;;;;6.78;3.30;;;;;;;7.10;100.00;101183.53;7390362;19;20014;-55
2022/03/23 01:17:22;;;;;;;6.10;3.55;;;;;;;7.04;100.00;101174.88;7388167;19;20025;-55
2022/03/23 01:19:49;;;;;;;15.00;3.53;;;;;;;7.00;100.00;101178.91;7391717;19;20014;-55
2022/03/23 01:22:16;;;;;;;18.88;3.88;;;;;;;6.96;100.00;101181.75;7402204;19;20358;-56
2022/03/23 01:24:44;;;;;;;14.02;4.55;;;;;;;6.81;100.00;101178.41;7398823;19;20021;-55
2022/03/23 01:27:10;;;;;;;11.93;3.90;;;;;;;6.74;100.00;101177.72;7400275;19;20021;-55
2022/03/23 01:29:36;;;;;;;18.67;4.35;;;;;;;6.74;100.00;101172.19;7399084;19;20018;-54
2022/03/23 01:32:02;;;;;;;18.00;5.32;;;;;;;6.72;100.00;101178.13;7401242;19;20025;-55
2022/03/23 01:34:28;;;;;;;16.95;5.72;;;;;;;6.66;100.00;101179.03;7398025;19;20025;-54
2022/03/23 01:36:54;;;;;;;18.23;5.40;;;;;;;6.63;100.00;101169.56;7399822;19;20011;-54
2022/03/23 01:39:19;;;;;;;15.18;4.95;;;;;;;6.54;100.00;101174.06;7399212;19;20007;-54
2022/03/23 01:41:45;;;;;;;8.05;3.72;;;;;;;6.45;100.00;101176.56;7402209;19;20014;-54
2022/03/23 01:44:17;;;;;;;18.65;4.15;;;;;;;6.46;100.00;101167.03;7397332;19;20349;-54
2022/03/23 01:47:01;;;;;;;22.52;5.88;;;;;;;6.41;100.00;101179.34;7398383;19;20025;-54
2022/03/23 01:49:30;;;;;;;10.95;5.18;;;;;;;6.37;100.00;101175.06;7396847;19;20011;-54
2022/03/23 01:51:56;;;;;;;15.63;4.32;;;;;;;6.38;100.00;101165.56;7399897;19;20081;-54
2022/03/23 01:54:23;;;;;;;13.93;3.83;;;;;;;6.36;100.00;101165.19;7397318;19;20019;-54
2022/03/23 01:56:50;;;;;;;12.27;4.72;;;;;;;6.39;100.00;101167.91;7397825;19;20006;-54
2022/03/23 01:59:18;;;;;;;7.03;4.20;;;;;;;6.36;100.00;101168.75;7397071;19;20010;-54
2022/03/23 02:01:44;;;;;;;20.90;5.60;;;;;;;6.36;100.00;101170.72;7400032;19;20014;-54
2022/03/23 02:04:10;;;;;;;5.93;4.18;;;;;;;6.31;100.00;101166.44;7395838;19;20022;-54
2022/03/23 02:06:37;;;;;;;6.53;3.10;;;;;;;6.22;100.00;101157.06;7395187;19;20038;-56
2022/03/23 02:09:05;;;;;;;10.70;3.50;;;;;;;6.21;100.00;101172.09;7396991;19;20486;-54
2022/03/23 02:11:37;;;;;;;12.35;4.68;;;;;;;6.08;100.00;101160.81;7399228;19;20425;-54
2022/03/23 02:14:03;;;;;;;17.65;4.65;;;;;;;6.02;100.00;101159.69;7396639;19;20073;-54
2022/03/23 02:16:28;;;;;;;17.50;4.10;;;;;;;5.92;100.00;101161.38;7398623;19;20006;-54
2022/03/23 02:18:55;;;;;;;10.52;4.80;;;;;;;5.93;100.00;101162.16;7396972;19;20021;-54
2022/03/23 02:21:21;;;;;;;23.42;3.78;;;;;;;5.95;100.00;101163.34;7398136;19;20372;-54
2022/03/23 02:23:49;;;;;;;18.63;4.00;;;;;;;5.92;100.00;101158.63;7393626;19;20090;-56
2022/03/23 02:26:15;;;;;;;12.07;3.20;;;;;;;5.88;100.00;101157.09;7395870;19;20011;-54
2022/03/23 02:28:40;;;;;;;8.60;4.03;;;;;;;5.84;100.00;101156.34;7396335;19;20015;-54
2022/03/23 02:31:07;;;;;;;6.97;2.80;;;;;;;5.80;100.00;101159.13;7398500;19;20066;-54
2022/03/23 02:33:33;;;;;;;3.17;2.42;;;;;;;5.79;100.00;101160.31;7394142;19;20034;-54
2022/03/23 02:35:59;;;;;;;13.80;4.78;;;;;;;5.82;100.00;101161.47;7402070;19;20015;-54
2022/03/23 02:38:24;;;;;;;11.95;3.60;;;;;;;5.81;100.00;101162.66;7397190;19;20371;-56
2022/03/23 02:40:50;;;;;;;9.35;3.30;;;;;;;5.77;100.00;101157.16;7399288;19;20010;-54
2022/03/23 02:43:15;;;;;;;7.20;3.80;;;;;;;5.77;100.00;101154.41;7396736;19;20030;-56
2022/03/23 02:45:41;;;;;;;8.25;3.58;;;;;;;5.77;100.00;101157.16;7394611;19;20034;-54
2022/03/23 02:48:07;;;;;;;8.52;3.25;;;;;;;5.85;100.00;101157.88;7397304;19;20010;-56
2022/03/23 02:50:34;;;;;;;6.45;3.85;;;;;;;5.92;100.00;101150.31;7396996;19;20006;-54
2022/03/23 03:01:55;;;;;;;13.20;4.18;;;;;;;5.98;100.00;101147.88;7399099;19;20006;-54
2022/03/23 03:04:23;;;;;;;14.02;3.22;;;;;;;5.99;100.00;101155.78;7393709;19;20119;-56
2022/03/23 03:06:49;;;;;;;10.65;4.78;;;;;;;6.02;100.00;101154.94;7396760;19;20015;-54
2022/03/23 03:09:15;;;;;;;9.40;2.78;;;;;;;5.98;100.00;101143.13;7396793;19;20014;-54
2022/03/23 03:11:43;;;;;;;6.60;2.55;;;;;;;5.91;100.00;101143.22;7399448;19;20368;-54
2022/03/23 03:14:10;;;;;;;15.98;3.42;;;;;;;5.89;100.00;101151.13;7396037;19;20053;-48
2022/03/23 03:16:36;;;;;;;11.65;3.28;;;;;;;5.84;100.00;101142.53;7396852;19;20010;-48
2022/03/23 03:19:05;;;;;;;3.08;2.65;;;;;;;5.85;100.00;101144.06;7396474;19;20021;-48
2022/03/23 03:21:32;;;;;;;7.68;2.80;;;;;;;5.81;100.00;101144.09;7396852;19;20056;-48
2022/03/23 03:23:58;;;;;;;23.10;4.50;;;;;;;5.75;100.00;101134.69;7394917;19;20078;-48
2022/03/23 03:26:23;;;;;;;12.65;3.92;;;;;;;5.74;100.00;101144.16;7394888;19;20032;-48
2022/03/23 03:28:50;;;;;;;15.88;4.32;;;;;;;5.71;100.00;101139.47;7394192;19;20027;-48
2022/03/23 03:31:16;;;;;;;3.30;2.10;;;;;;;5.73;100.00;101137.09;7395369;19;20011;-48
2022/03/23 03:33:43;;;;;;;17.30;3.53;;;;;;;5.65;100.00;101130.03;7392031;19;20070;-48
2022/03/23 03:36:09;;;;;;;22.70;3.75;;;;;;;5.63;100.00;101132.44;7396681;19;20462;-48
2022/03/23 03:38:36;;;;;;;10.52;3.25;;;;;;;5.52;100.00;101131.78;7393481;19;20022;-48
2022/03/23 03:41:02;;;;;;;22.65;4.45;;;;;;;5.48;100.00;101136.53;7395286;19;20018;-48
2022/03/23 03:43:28;;;;;;;9.93;3.83;;;;;;;5.39;100.00;101136.25;7393190;19;20379;-48
2022/03/23 03:45:54;;;;;;;4.72;3.30;;;;;;;5.36;100.00;101137.06;7394452;19;20086;-48
2022/03/23 03:48:19;;;;;;;13.25;5.47;;;;;;;5.35;100.00;101143.75;7394232;19;20019;-48
2022/03/23 03:50:46;;;;;;;19.92;4.22;;;;;;;5.33;100.00;101135.09;7394023;19;20018;-48
2022/03/23 03:53:11;;;;;;;10.13;4.43;;;;;;;5.23;100.00;101141.50;7393070;19;20484;-48
2022/03/23 03:55:38;;;;;;;16.15;4.85;;;;;;;5.18;100.00;101147.47;7394410;19;20011;-48
2022/03/23 03:58:05;;;;;;;15.82;3.60;;;;;;;5.12;100.00;101158.19;7393566;19;20018;-48
2022/03/23 04:00:31;;;;;;;4.28;3.13;;;;;;;5.09;100.00;101150.69;7393852;19;20098;-48
2022/03/23 04:02:57;;;;;;;14.43;4.68;;;;;;;5.04;100.00;101166.91;7392000;19;20021;-48
2022/03/23 04:05:23;;;;;;;17.05;3.85;;;;;;;4.99;100.00;101159.84;7393131;19;20014;-48
2022/03/23 04:07:49;;;;;;;29.90;4.38;;;;;;;4.97;100.00;101166.97;7393667;19;20021;-48
2022/03/23 04:10:15;;;;;;;17.98;3.80;;;;;;;4.90;100.00;101161.47;7394706;19;20019;-48
2022/03/23 04:12:41;;;;;;;17.25;5.90;;;;;;;4.85;100.00;101159.19;7392666;19;20018;-48
2022/03/23 04:15:07;;;;;;;4.35;3.38;;;;;;;4.91;100.00;101168.59;7393528;19;20025;-48
2022/03/23 04:17:32;;;;;;;23.00;4.50;;;;;;;4.89;100.00;101170.97;7392909;19;20015;-48
2022/03/23 04:19:58;;;;;;;6.13;2.75;;;;;;;4.91;100.00;101171.34;7391936;19;20021;-48
2022/03/23 04:22:24;;;;;;;8.70;3.45;;;;;;;4.88;100.00;101161.91;7398749;19;20042;-48
2022/03/23 04:24:49;;;;;;;2.67;2.47;;;;;;;4.87;100.00;101156.78;7392797;19;20042;-48
2022/03/23 04:27:15;;;;;;;9.10;3.22;;;;;;;4.88;100.00;101169.38;7393339;19;20034;-48
2022/03/23 04:29:41;;;;;;;7.03;2.25;;;;;;;4.90;100.00;101167.00;7393825;19;20044;-48
2022/03/23 04:32:10;;;;;;;9.00;3.00;;;;;;;4.89;100.00;101159.94;7396594;19;20370;-48
2022/03/23 04:34:36;;;;;;;11.43;4.07;;;;;;;4.92;100.00;101159.91;7394061;19;20400;-48
2022/03/23 04:37:03;;;;;;;8.50;3.42;;;;;;;4.97;100.00;101161.44;7390952;19;20022;-48
2022/03/23 04:39:29;;;;;;;4.32;3.20;;;;;;;4.96;100.00;101170.94;7394246;19;20106;-48
2022/03/23 04:41:54;;;;;;;11.77;3.55;;;;;;;4.91;100.00;101165.84;7394802;19;20035;-48
2022/03/23 04:44:21;;;;;;;14.25;3.40;;;;;;;4.92;100.00;101173.69;7391560;19;20094;-48
2022/03/23 04:46:47;;;;;;;3.40;3.15;;;;;;;4.87;100.00;101162.31;7390164;19;20025;-48
2022/03/23 04:49:13;;;;;;;10.57;3.95;;;;;;;4.81;100.00;101166.69;7390854;19;20018;-48
2022/03/23 04:51:39;;;;;;;23.52;4.10;;;;;;;4.78;100.00;101171.03;7395053;19;20015;-48
2022/03/23 04:54:05;;;;;;;11.75;3.92;;;;;;;4.74;100.00;101173.03;7390471;19;20455;-48
2022/03/23 04:56:30;;;;;;;7.28;3.45;;;;;;;4.76;100.00;101173.44;7394837;19;20018;-48
2022/03/23 04:58:56;;;;;;;7.05;3.83;;;;;;;4.75;100.00;101173.81;7399113;19;20022;-48
2022/03/23 05:01:22;;;;;;;16.75;4.40;;;;;;;4.67;100.00;101169.53;7402783;19;20006;-48
2022/03/23 05:03:47;;;;;;;17.05;3.80;;;;;;;4.63;100.00;101170.31;7399313;19;20014;-48
2022/03/23 05:06:13;;;;;;;3.60;2.22;;;;;;;4.66;100.00;101177.00;7401137;19;20018;-48
2022/03/23 05:08:38;;;;;;;4.70;2.60;;;;;;;4.73;100.00;101178.94;7399042;19;20090;-48
2022/03/23 05:11:04;;;;;;;18.42;3.72;;;;;;;4.70;100.00;101183.28;7400826;19;20006;-48
2022/03/23 05:13:29;;;;;;;7.00;2.35;;;;;;;4.68;100.00;101182.16;7400352;19;20010;-48
2022/03/23 05:15:55;;;;;;;7.97;3.13;;;;;;;4.70;100.00;101185.28;7400483;19;20015;-48
2022/03/23 05:18:21;;;;;;;8.52;2.78;;;;;;;4.66;100.00;101179.00;7400785;19;20019;-48
2022/03/23 05:20:47;;;;;;;19.33;3.88;;;;;;;4.63;100.00;101185.31;7399933;19;20022;-48
2022/03/23 05:23:14;;;;;;;12.10;3.55;;;;;;;4.63;100.00;101173.09;7399866;19;20014;-48
2022/03/23 05:25:39;;;;;;;11.55;3.60;;;;;;;4.66;100.00;101179.00;7400695;19;20025;-48
2022/03/23 05:28:08;;;;;;;26.65;4.40;;;;;;;4.63;100.00;101185.31;7399765;19;20400;-48
2022/03/23 05:30:35;;;;;;;3.65;2.33;;;;;;;4.56;100.00;101175.91;7400410;19;20014;-48
2022/03/23 05:33:01;;;;;;;17.40;3.05;;;;;;;4.55;100.00;101185.34;7399225;19;20022;-48
2022/03/23 05:35:27;;;;;;;7.05;2.72;;;;;;;4.50;100.00;101185.75;7402128;19;20408;-48
2022/03/23 05:37:54;;;;;;;10.10;3.30;;;;;;;4.47;100.00;101194.88;7399880;19;20025;-48
2022/03/23 05:40:21;;;;;;;8.07;4.00;;;;;;;4.46;100.00;101192.50;7399782;19;20010;-48
2022/03/23 05:42:47;;;;;;;5.57;3.42;;;;;;;4.43;100.00;101187.78;7399102;19;20033;-48
2022/03/23 05:45:13;;;;;;;10.63;3.00;;;;;;;4.41;100.00;101190.16;7399497;19;20011;-48
2022/03/23 05:47:40;;;;;;;15.40;4.40;;;;;;;4.39;100.00;101198.06;7399767;19;20011;-47
2022/03/23 05:50:08;;;;;;;4.40;2.72;;;;;;;4.38;100.00;101205.53;7399148;19;20015;-47
2022/03/23 05:52:35;;;;;;;13.25;3.78;;;;;;;4.37;100.00;101195.69;7398228;19;20108;-47
2022/03/23 05:55:01;;;;;;;10.48;3.25;;;;;;;4.38;100.00;101197.25;7399217;19;20435;-47
2022/03/23 05:57:28;;;;;;;27.90;4.95;;;;;;;4.37;100.00;101200.44;7398122;19;20072;-47
2022/03/23 05:59:53;;;;;;;13.52;3.78;;;;;;;4.36;100.00;101196.88;7398330;19;20015;-47
2022/03/23 06:02:19;;;;;;;5.07;3.08;;;;;;;4.38;100.00;101202.78;7401458;19;20066;-47
2022/03/23 06:04:46;;;;;;;6.57;3.17;;;;;;;4.36;100.00;101193.31;7398264;19;20386;-47
2022/03/23 06:07:11;;;;;;;8.13;4.40;;;;;;;4.35;100.00;101192.53;7397200;19;20015;-47
2022/03/23 06:09:37;;;;;;;4.68;3.25;;;;;;;4.33;100.00;101200.44;7398370;19;20011;-47
2022/03/23 06:12:04;;;;;;;10.38;4.40;;;;;;;4.30;100.00;101206.75;7402434;19;20062;-47
2022/03/23 06:14:30;;;;;;;10.77;3.70;;;;;;;4.29;100.00;101210.69;7397455;19;20363;-47
2022/03/23 06:16:55;;;;;;;13.25;3.80;;;;;;;4.27;100.00;101215.03;7398196;19;20018;-48
2022/03/23 06:19:21;;;;;;;9.65;2.90;;;;;;;4.24;100.00;101213.09;7397801;19;20074;-48
2022/03/23 06:21:47;;;;;;;6.40;3.35;;;;;;;4.23;100.00;101206.78;7398413;19;20531;-48
2022/03/23 06:24:12;;;;;;;13.32;3.88;;;;;;;4.22;100.00;101205.19;7393639;19;20006;-47
2022/03/23 06:26:38;;;;;;;6.30;2.83;;;;;;;4.22;100.00;101205.19;7396528;19;20019;-47
2022/03/23 06:29:04;;;;;;;4.40;2.53;;;;;;;4.24;100.00;101202.06;7396364;19;20490;-47
2022/03/23 06:31:30;;;;;;;4.65;3.08;;;;;;;4.24;100.00;101211.13;7400442;19;20033;-47
2022/03/23 06:33:55;;;;;;;11.05;3.85;;;;;;;4.27;100.00;101213.06;7400985;19;20002;-47
2022/03/23 06:36:21;;;;;;;3.92;2.55;;;;;;;4.29;100.00;101207.94;7399924;19;20027;-47
2022/03/23 06:38:48;;;;;;;8.80;4.03;;;;;;;4.35;100.00;101219.34;7399471;19;20022;-47
2022/03/23 06:41:13;;;;;;;10.82;3.15;;;;;;;4.38;100.00;101219.31;7397152;19;20066;-47
2022/03/23 06:43:39;;;;;;;7.15;3.22;;;;;;;4.42;100.00;101217.34;7396655;19;20463;-47
2022/03/23 06:46:05;;;;;;;3.35;2.45;;;;;;;4.46;100.00;101220.09;7400293;19;20370;-47
2022/03/23 06:48:30;;;;;;;7.70;3.05;;;;;;;4.54;100.00;101222.41;7400955;19;20375;-47
2022/03/23 06:50:56;;;;;;;15.98;3.75;;;;;;;4.60;100.00;101215.28;7399345;19;20497;-47
2022/03/23 06:53:21;;;;;;;30.52;3.47;;;;;;;4.63;100.00;101224.75;7400203;19;20440;-47
2022/03/23 06:55:48;;;;;;;13.07;3.33;;;;;;;4.67;100.00;101219.19;7400069;19;20006;-47
2022/03/23 06:58:13;;;;;;;15.63;3.25;;;;;;;4.68;100.00;101218.78;7399700;19;20010;-47
2022/03/23 07:00:39;;;;;;;5.07;3.03;;;;;;;4.69;100.00;101222.34;7396207;19;20454;-47
2022/03/23 07:03:05;;;;;;;6.00;2.72;;;;;;;4.73;100.00;101212.06;7398419;19;20014;-47
2022/03/23 07:05:33;;;;;;;6.47;3.33;;;;;;;4.81;100.00;101219.13;7398934;19;20022;-48
2022/03/23 07:10:43;;;;;;;13.43;3.40;;;;;;;4.99;100.00;101214.28;7398613;19;20352;-48
2022/03/23 07:13:08;;;;;;;6.70;3.17;;;;;;;5.09;100.00;101230.75;7398747;19;20006;-48
2022/03/23 07:15:34;;;;;;;14.05;5.50;;;;;;;5.18;100.00;101222.03;7399671;19;20015;-48
2022/03/23 07:17:59;;;;;;;17.67;4.47;;;;;;;5.28;100.00;101226.69;7398150;19;20463;-48
2022/03/23 07:20:25;;;;;;;11.73;4.28;;;;;;;5.38;100.00;101231.34;7395533;19;20015;-48
2022/03/23 07:22:51;;;;;;;4.70;3.80;;;;;;;5.46;100.00;101238.38;7397382;19;20014;-48
2022/03/23 07:25:16;;;;;;;17.63;4.90;;;;;;;5.51;100.00;101240.72;7397922;19;20014;-48
2022/03/23 07:27:42;;;;;;;6.50;1.75;;;;;;;5.58;100.00;101240.66;7398040;19;20011;-48
2022/03/23 07:30:08;;;;;;;11.23;3.05;;;;;;;5.62;100.00;101246.16;7396541;19;20328;-48
2022/03/23 07:32:35;;;;;;;2.28;2.17;;;;;;;5.73;100.00;101247.63;7398301;19;20014;-48
2022/03/23 07:35:01;;;;;;;14.70;4.15;;;;;;;5.79;100.00;101251.53;7395379;19;20010;-48
2022/03/23 07:37:26;;;;;;;30.58;3.50;;;;;;;5.88;100.00;101248.31;7395812;19;20508;-48
2022/03/23 07:39:52;;;;;;;14.15;4.90;;;;;;;5.96;100.00;101245.06;7394546;19;20027;-48
2022/03/23 07:42:17;;;;;;;13.90;4.15;;;;;;;6.01;100.00;101252.91;7398886;19;20424;-48
2022/03/23 07:44:43;;;;;;;7.97;2.97;;;;;;;6.08;100.00;101252.84;7393301;19;20016;-48
2022/03/23 07:47:10;;;;;;;8.07;2.83;;;;;;;6.21;100.00;101257.84;7393160;19;20587;-48
2022/03/23 07:49:36;;;;;;;15.38;5.70;;;;;;;6.32;100.00;101255.75;7394634;19;20014;-48
2022/03/23 07:52:03;;;;;;;8.70;5.00;;;;;;;6.47;100.00;101252.41;7396562;19;20018;-49
2022/03/23 07:54:29;;;;;;;8.68;6.22;;;;;;;6.62;100.00;101253.03;7394973;19;20070;-48
2022/03/23 07:56:55;;;;;;;8.50;3.05;;;;;;;6.72;100.00;101263.16;7393398;19;20015;-49
2022/03/23 07:59:20;;;;;;;21.88;5.22;;;;;;;6.83;100.00;101252.75;7394849;19;20490;-49
2022/03/23 08:01:46;;;;;;;13.82;3.40;;;;;;;7.01;100.00;101263.56;7398557;19;20038;-48
2022/03/23 08:04:11;;;;;;;14.48;3.63;;;;;;;7.12;100.00;101276.09;7393075;19;20013;-48
2022/03/23 08:06:37;;;;;;;32.22;6.55;;;;;;;7.25;100.00;101268.78;7392845;19;20353;-48
2022/03/23 08:09:04;;;;;;;10.20;3.95;;;;;;;7.43;100.00;101280.34;7393218;19;20022;-51
2022/03/23 08:11:30;;;;;;;12.13;4.22;;;;;;;7.58;100.00;101273.38;7395888;19;20022;-48
2022/03/23 08:13:56;;;;;;;22.48;5.50;;;;;;;7.74;100.00;101272.75;7394271;19;20014;-48
2022/03/23 08:16:23;;;;;;;10.05;5.28;;;;;;;7.86;100.00;101276.91;7393224;19;20032;-48
2022/03/23 08:18:49;;;;;;;18.10;4.43;;;;;;;8.01;100.00;101276.22;7394328;19;20011;-48
2022/03/23 08:21:17;;;;;;;20.20;4.18;;;;;;;8.15;100.00;101275.97;7395767;19;20011;-48
2022/03/23 08:23:43;;;;;;;21.52;5.13;;;;;;;8.28;100.00;101284.47;7391941;19;20459;-48
2022/03/23 08:26:10;;;;;;;27.92;5.90;;;;;;;8.44;100.00;101286.56;7394597;19;20078;-48
2022/03/23 08:28:38;;;;;;;18.95;5.22;;;;;;;8.62;100.00;101282.22;7393672;19;20015;-48
2022/03/23 08:31:04;;;;;;;13.57;4.90;;;;;;;8.80;100.00;101282.66;7393764;19;20038;-48
2022/03/23 08:33:32;;;;;;;18.92;5.90;;;;;;;8.97;100.00;101281.50;7391759;19;20018;-48
2022/03/23 08:35:59;;;;;;;13.30;4.68;;;;;;;9.17;100.00;101284.22;7393869;19;20022;-48
2022/03/23 08:38:25;;;;;;;33.75;7.68;;;;;;;9.32;100.00;101279.91;7392297;19;20070;-48
2022/03/23 08:40:51;;;;;;;17.42;5.95;;;;;;;9.48;100.00;101281.94;7394047;19;20036;-48
2022/03/23 08:43:16;;;;;;;11.90;5.97;;;;;;;9.65;100.00;101280.72;7391140;19;20011;-48
2022/03/23 08:45:42;;;;;;;11.75;5.30;;;;;;;9.89;100.00;101282.13;7395629;19;20014;-48
2022/03/23 08:48:09;;;;;;;19.52;6.72;;;;;;;10.04;100.00;101283.31;7393619;19;20480;-48
2022/03/23 08:50:35;;;;;;;43.20;8.05;;;;;;;10.25;100.00;101290.34;7393824;19;20011;-48
2022/03/23 08:53:05;;;;;;;25.50;7.93;;;;;;;10.35;100.00;101284.47;7391927;19;20078;-48
2022/03/23 08:55:31;;;;;;;21.90;7.22;;;;;;;10.52;100.00;101291.59;7393066;19;20015;-48
2022/03/23 08:57:56;;;;;;;20.15;6.03;;;;;;;10.64;100.00;101290.84;7392725;19;20015;-48
2022/03/23 09:00:22;;;;;;;19.42;5.15;;;;;;;10.86;100.00;101293.00;7393235;19;20010;-48
2022/03/23 09:02:48;;;;;;;18.90;7.28;;;;;;;11.00;100.00;101285.00;7392948;19;20050;-48
2022/03/23 09:05:14;;;;;;;13.35;6.05;;;;;;;11.19;100.00;101302.78;7393229;19;20343;-49
2022/03/23 09:07:41;;;;;;;28.70;7.20;;;;;;;11.30;100.00;101306.03;7393504;19;20010;-49
2022/03/23 09:10:08;;;;;;;26.83;7.18;;;;;;;11.55;100.00;101291.28;7392300;19;20011;-49
2022/03/23 09:12:34;;;;;;;20.63;8.02;;;;;;;11.75;100.00;101298.22;7392854;19;20015;-48
2022/03/23 09:15:00;;;;;;;22.67;8.68;;;;;;;11.94;100.00;101296.38;7390867;19;20027;-49
2022/03/23 09:17:25;;;;;;;29.70;8.98;;;;;;;12.12;100.00;101299.38;7391636;19;20034;-49
2022/03/23 09:19:51;;;;;;;23.58;7.75;;;;;;;12.26;100.00;101295.31;7392018;19;20043;-49
2022/03/23 09:22:17;;;;;;;22.60;6.80;;;;;;;12.34;100.00;101296.63;7396299;19;20011;-49
2022/03/23 09:24:42;;;;;;;19.95;8.00;;;;;;;12.45;100.00;101302.63;7390041;19;20078;-48
2022/03/23 09:27:08;;;;;;;34.00;8.05;;;;;;;12.51;100.00;101298.78;7390601;19;20015;-56
2022/03/23 09:29:34;;;;;;;14.82;6.47;;;;;;;12.58;100.00;101297.75;7390578;19;20038;-48
2022/03/23 09:32:00;;;;;;;17.77;6.90;;;;;;;12.80;100.00;101290.13;7395642;19;20026;-48
2022/03/23 09:34:26;;;;;;;32.45;10.13;;;;;;;12.97;100.00;101297.09;7391529;19;20011;-48
2022/03/23 09:39:35;;;;;;;21.42;6.32;;;;;;;13.21;100.00;101298.16;7392438;19;20022;-49
2022/03/23 09:42:03;;;;;;;30.50;9.02;;;;;;;13.38;100.00;101312.72;7395505;19;20035;-49
2022/03/23 09:44:30;;;;;;;16.98;8.02;;;;;;;13.57;100.00;101308.75;7393575;19;20029;-49
2022/03/23 09:46:58;;;;;;;18.58;6.82;;;;;;;13.69;100.00;101305.84;7398822;19;20102;-49
2022/03/23 09:49:25;;;;;;;26.23;7.18;;;;;;;13.80;100.00;101304.63;7398284;19;20029;-49
2022/03/23 09:51:53;;;;;;;22.13;6.38;;;;;;;13.91;100.00;101304.97;7400931;19;20024;-49
2022/03/23 09:54:22;;;;;;;20.30;6.63;;;;;;;14.06;100.00;101309.50;7397227;19;20038;-49
2022/03/23 09:56:51;;;;;;;19.27;8.25;;;;;;;14.24;100.00;101306.75;7397886;19;20010;-49
2022/03/23 09:59:17;;;;;;;17.60;6.85;;;;;;;14.51;100.00;101300.38;7397425;19;20014;-49
2022/03/23 10:01:51;;;;;;;16.50;6.45;;;;;;;14.69;100.00;101297.56;7400070;19;20081;-48
2022/03/23 10:04:17;;;;;;;19.80;6.60;;;;;;;14.83;100.00;101308.16;7396768;19;20052;-48
2022/03/23 10:06:49;;;;;;;32.78;7.28;;;;;;;14.99;100.00;101301.41;7398394;19;20010;-49
2022/03/23 10:09:23;;;;;;;15.95;5.63;;;;;;;15.16;100.00;101297.00;7398319;19;20497;-48
2022/03/23 10:12:26;;;;;;;24.45;7.30;;;;;;;15.27;100.00;101290.91;7401450;19;20337;-48
2022/03/23 10:15:30;;;;;;;23.58;7.18;;;;;;;15.45;100.00;101290.84;7398346;19;20014;-48
2022/03/23 10:18:16;;;;;;;17.55;6.55;;;;;;;15.63;100.00;101291.56;7397943;19;20011;-49
2022/03/23 10:20:42;;;;;;;15.10;6.55;;;;;;;15.78;100.00;101302.88;7397859;19;20018;-49
2022/03/23 10:23:07;;;;;;;16.90;5.80;;;;;;;15.83;100.00;101293.81;7398025;19;20018;-49
2022/03/23 10:25:33;;;;;;;20.63;5.82;;;;;;;15.89;100.00;101303.91;7398373;19;20422;-49
2022/03/23 10:27:59;;;;;;;12.35;4.55;;;;;;;16.15;100.00;101303.44;7397405;19;20014;-49
2022/03/23 10:30:36;;;;;;;36.78;6.05;;;;;;;16.19;100.00;101307.63;7396672;19;20014;-49
2022/03/23 10:33:01;;;;;;;14.20;5.70;;;;;;;16.33;100.00;101308.94;7395831;19;20014;-49
2022/03/23 10:35:38;;;;;;;23.83;7.15;;;;;;;16.40;100.00;101298.06;7398022;19;20011;-49
2022/03/23 10:38:12;;;;;;;21.83;9.57;;;;;;;16.53;100.00;101300.66;7393848;19;20022;-49
2022/03/23 10:40:38;;;;;;;16.52;8.07;;;;;;;16.56;100.00;101299.69;7396811;19;20014;-49
2022/03/23 10:43:03;;;;;;;17.23;7.28;;;;;;;16.64;100.00;101296.03;7395352;19;20340;-49
2022/03/23 10:45:32;;;;;;;17.10;6.78;;;;;;;16.74;100.00;101295.94;7395622;19;20029;-49
2022/03/23 10:48:07;;;;;;;20.80;5.82;;;;;;;16.83;100.00;101293.06;7394973;19;20056;-49
2022/03/23 10:50:33;;;;;;;22.80;6.32;;;;;;;16.90;100.00;101299.06;7396169;19;20014;-49
2022/03/23 10:53:02;;;;;;;19.55;5.85;;;;;;;17.02;100.00;101297.97;7393866;19;20021;-49
2022/03/23 10:55:30;;;;;;;18.45;7.00;;;;;;;17.20;100.00;101292.16;7394986;19;20010;-49
2022/03/23 10:57:58;;;;;;;15.88;6.68;;;;;;;17.28;100.00;101298.19;7396028;19;20032;-49
2022/03/23 11:00:30;;;;;;;14.85;6.13;;;;;;;17.37;100.00;101295.25;7396677;19;20375;-49
2022/03/23 11:02:57;;;;;;;15.48;6.05;;;;;;;17.41;100.00;101301.47;7392794;19;20021;-49
2022/03/23 11:05:43;;;;;;;14.27;5.60;;;;;;;17.46;100.00;101289.50;7395012;19;20026;-50
2022/03/23 11:08:18;;;;;;;14.88;5.97;;;;;;;17.49;100.00;101297.00;7396323;19;20467;-49
2022/03/23 11:16:31;;;;;;;17.35;5.55;;;;;;;17.73;100.00;101297.66;7396803;19;20018;-49
2022/03/23 11:19:12;;;;;;;15.35;5.28;;;;;;;17.80;100.00;101300.03;7396669;19;20019;-49
2022/03/23 11:22:04;;;;;;;12.18;4.72;;;;;;;17.83;100.00;101292.66;7398963;19;20018;-49
2022/03/23 11:24:43;;;;;;;9.05;4.47;;;;;;;17.84;100.00;101294.22;7393984;19;20010;-49
2022/03/23 11:27:18;;;;;;;20.90;6.65;;;;;;;17.86;100.00;101292.47;7396121;19;20459;-49
2022/03/23 11:29:44;;;;;;;14.20;5.53;;;;;;;17.87;99.51;101288.34;7396021;19;20022;-49
2022/03/23 11:32:16;;;;;;;17.50;5.32;;;;;;;17.91;100.00;101293.81;7396917;19;20392;-49
2022/03/23 11:34:47;;;;;;;15.13;4.22;;;;;;;17.90;98.18;101287.38;7394354;19;20022;-49
2022/03/23 11:37:13;;;;;;;20.80;6.10;;;;;;;18.03;99.44;101285.00;7394127;19;20020;-50